sensor_id;sensor_type;location;lat;lon;timestamp;P1;durP1;ratioP1;P2;durP2;ratioP2
51475;SDS011;37554;50.362;7.568;2023-08-21T00:02:22;5.75;;;4.93;;
51475;SDS011;37554;50.362;7.568;2023-08-21T00:04:50;4.93;;;4.53;;
51475;SDS011;37554;50.362;7.568;2023-08-21T00:07:16;6.47;;;4.68;;
51475;SDS011;37554;50.362;7.568;2023-08-21T00:09:41;5.20;;;4.70;;
51475;SDS011;37554;50.362;7.568;2023-08-21T00:12:07;7.40;;;5.15;;
51475;SDS011;37554;50.362;7.568;2023-08-21T00:14:32;5.82;;;4.55;;
51475;SDS011;37554;50.362;7.568;2023-08-21T00:16:58;5.18;;;4.68;;
51475;SDS011;37554;50.362;7.568;2023-08-21T00:19:24;5.00;;;4.38;;
51475;SDS011;37554;50.362;7.568;2023-08-21T00:21:49;4.78;;;4.22;;
51475;SDS011;37554;50.362;7.568;2023-08-21T00:24:15;5.45;;;4.70;;
51475;SDS011;37554;50.362;7.568;2023-08-21T00:26:41;7.28;;;4.72;;
51475;SDS011;37554;50.362;7.568;2023-08-21T00:29:06;5.30;;;4.90;;
51475;SDS011;37554;50.362;7.568;2023-08-21T00:31:32;5.68;;;4.80;;
51475;SDS011;37554;50.362;7.568;2023-08-21T00:33:57;5.47;;;4.97;;
51475;SDS011;37554;50.362;7.568;2023-08-21T00:36:23;6.47;;;4.78;;
51475;SDS011;37554;50.362;7.568;2023-08-21T00:38:49;4.95;;;4.45;;
51475;SDS011;37554;50.362;7.568;2023-08-21T00:41:14;7.75;;;4.72;;
51475;SDS011;37554;50.362;7.568;2023-08-21T00:43:40;5.25;;;4.85;;
51475;SDS011;37554;50.362;7.568;2023-08-21T00:46:05;5.90;;;4.68;;
51475;SDS011;37554;50.362;7.568;2023-08-21T00:48:31;4.97;;;4.53;;
51475;SDS011;37554;50.362;7.568;2023-08-21T00:50:57;4.78;;;4.38;;
51475;SDS011;37554;50.362;7.568;2023-08-21T00:53:23;5.72;;;4.50;;
51475;SDS011;37554;50.362;7.568;2023-08-21T00:55:49;4.57;;;4.15;;
51475;SDS011;37554;50.362;7.568;2023-08-21T00:58:15;8.45;;;4.80;;
51475;SDS011;37554;50.362;7.568;2023-08-21T01:00:42;5.30;;;4.53;;
51475;SDS011;37554;50.362;7.568;2023-08-21T01:03:12;4.88;;;4.47;;
51475;SDS011;37554;50.362;7.568;2023-08-21T01:05:38;4.70;;;4.25;;
51475;SDS011;37554;50.362;7.568;2023-08-21T01:08:05;5.07;;;4.32;;
51475;SDS011;37554;50.362;7.568;2023-08-21T01:10:45;6.70;;;4.43;;
51475;SDS011;37554;50.362;7.568;2023-08-21T01:16:19;5.03;;;4.18;;
51475;SDS011;37554;50.362;7.568;2023-08-21T01:18:49;5.40;;;4.90;;
51475;SDS011;37554;50.362;7.568;2023-08-21T01:21:15;5.50;;;4.53;;
51475;SDS011;37554;50.362;7.568;2023-08-21T01:23:42;5.03;;;4.63;;
51475;SDS011;37554;50.362;7.568;2023-08-21T01:26:08;4.68;;;4.00;;
51475;SDS011;37554;50.362;7.568;2023-08-21T01:28:34;5.93;;;4.63;;
51475;SDS011;37554;50.362;7.568;2023-08-21T01:31:18;5.20;;;4.80;;
51475;SDS011;37554;50.362;7.568;2023-08-21T01:33:50;5.78;;;4.80;;
51475;SDS011;37554;50.362;7.568;2023-08-21T01:36:18;5.28;;;4.55;;
51475;SDS011;37554;50.362;7.568;2023-08-21T01:38:45;5.03;;;4.60;;
51475;SDS011;37554;50.362;7.568;2023-08-21T01:41:11;5.72;;;4.40;;
51475;SDS011;37554;50.362;7.568;2023-08-21T01:43:37;7.45;;;4.65;;
51475;SDS011;37554;50.362;7.568;2023-08-21T01:46:02;5.03;;;4.53;;
51475;SDS011;37554;50.362;7.568;2023-08-21T01:48:28;4.80;;;4.38;;
51475;SDS011;37554;50.362;7.568;2023-08-21T01:50:54;5.50;;;4.32;;
51475;SDS011;37554;50.362;7.568;2023-08-21T01:53:20;5.82;;;4.65;;
51475;SDS011;37554;50.362;7.568;2023-08-21T01:55:45;4.82;;;4.40;;
51475;SDS011;37554;50.362;7.568;2023-08-21T01:58:11;5.15;;;4.53;;
51475;SDS011;37554;50.362;7.568;2023-08-21T02:00:37;5.82;;;4.05;;
51475;SDS011;37554;50.362;7.568;2023-08-21T02:03:02;6.82;;;4.82;;
51475;SDS011;37554;50.362;7.568;2023-08-21T02:05:28;4.55;;;4.03;;
51475;SDS011;37554;50.362;7.568;2023-08-21T02:07:54;6.63;;;4.75;;
51475;SDS011;37554;50.362;7.568;2023-08-21T02:10:20;5.22;;;4.50;;
51475;SDS011;37554;50.362;7.568;2023-08-21T02:12:45;4.78;;;4.38;;
51475;SDS011;37554;50.362;7.568;2023-08-21T02:15:11;5.03;;;4.40;;
51475;SDS011;37554;50.362;7.568;2023-08-21T02:17:36;5.22;;;4.72;;
51475;SDS011;37554;50.362;7.568;2023-08-21T02:20:02;4.97;;;4.55;;
51475;SDS011;37554;50.362;7.568;2023-08-21T02:22:28;4.68;;;4.28;;
51475;SDS011;37554;50.362;7.568;2023-08-21T02:24:54;5.65;;;4.50;;
51475;SDS011;37554;50.362;7.568;2023-08-21T02:27:19;4.82;;;4.40;;
51475;SDS011;37554;50.362;7.568;2023-08-21T02:29:45;4.90;;;4.35;;
51475;SDS011;37554;50.362;7.568;2023-08-21T02:32:10;6.78;;;4.30;;
51475;SDS011;37554;50.362;7.568;2023-08-21T02:34:36;5.60;;;4.30;;
51475;SDS011;37554;50.362;7.568;2023-08-21T02:37:02;5.05;;;4.40;;
51475;SDS011;37554;50.362;7.568;2023-08-21T02:39:28;4.93;;;4.25;;
51475;SDS011;37554;50.362;7.568;2023-08-21T02:41:54;5.53;;;4.72;;
51475;SDS011;37554;50.362;7.568;2023-08-21T02:44:19;6.07;;;4.25;;
51475;SDS011;37554;50.362;7.568;2023-08-21T02:46:45;4.85;;;4.50;;
51475;SDS011;37554;50.362;7.568;2023-08-21T02:49:10;6.15;;;4.72;;
51475;SDS011;37554;50.362;7.568;2023-08-21T02:51:36;4.57;;;4.22;;
51475;SDS011;37554;50.362;7.568;2023-08-21T02:54:02;6.18;;;4.60;;
51475;SDS011;37554;50.362;7.568;2023-08-21T02:56:27;5.22;;;4.50;;
51475;SDS011;37554;50.362;7.568;2023-08-21T02:58:53;5.43;;;4.70;;
51475;SDS011;37554;50.362;7.568;2023-08-21T03:01:19;5.20;;;4.57;;
51475;SDS011;37554;50.362;7.568;2023-08-21T03:03:44;6.13;;;4.38;;
51475;SDS011;37554;50.362;7.568;2023-08-21T03:06:10;8.13;;;4.30;;
51475;SDS011;37554;50.362;7.568;2023-08-21T03:08:35;5.03;;;4.60;;
51475;SDS011;37554;50.362;7.568;2023-08-21T03:11:01;5.03;;;4.53;;
51475;SDS011;37554;50.362;7.568;2023-08-21T03:13:27;4.65;;;4.18;;
51475;SDS011;37554;50.362;7.568;2023-08-21T03:15:52;5.82;;;4.53;;
51475;SDS011;37554;50.362;7.568;2023-08-21T03:18:18;8.23;;;4.38;;
51475;SDS011;37554;50.362;7.568;2023-08-21T03:20:44;4.80;;;4.43;;
51475;SDS011;37554;50.362;7.568;2023-08-21T03:23:11;5.07;;;4.28;;
51475;SDS011;37554;50.362;7.568;2023-08-21T03:25:37;6.75;;;4.63;;
51475;SDS011;37554;50.362;7.568;2023-08-21T03:28:03;5.90;;;4.72;;
51475;SDS011;37554;50.362;7.568;2023-08-21T03:30:28;4.70;;;4.30;;
51475;SDS011;37554;50.362;7.568;2023-08-21T03:32:54;5.40;;;4.90;;
51475;SDS011;37554;50.362;7.568;2023-08-21T03:35:20;5.35;;;4.53;;
51475;SDS011;37554;50.362;7.568;2023-08-21T03:37:45;5.05;;;4.53;;
51475;SDS011;37554;50.362;7.568;2023-08-21T03:40:11;4.85;;;4.43;;
51475;SDS011;37554;50.362;7.568;2023-08-21T03:42:37;6.65;;;4.75;;
51475;SDS011;37554;50.362;7.568;2023-08-21T03:45:03;6.90;;;4.72;;
51475;SDS011;37554;50.362;7.568;2023-08-21T03:47:30;6.65;;;4.47;;
51475;SDS011;37554;50.362;7.568;2023-08-21T03:49:56;5.35;;;4.72;;
51475;SDS011;37554;50.362;7.568;2023-08-21T03:52:21;5.20;;;4.70;;
51475;SDS011;37554;50.362;7.568;2023-08-21T03:54:47;5.72;;;4.80;;
51475;SDS011;37554;50.362;7.568;2023-08-21T03:57:13;7.18;;;4.55;;
51475;SDS011;37554;50.362;7.568;2023-08-21T03:59:38;5.57;;;4.40;;
51475;SDS011;37554;50.362;7.568;2023-08-21T04:02:04;4.60;;;4.20;;
51475;SDS011;37554;50.362;7.568;2023-08-21T04:04:29;7.07;;;4.50;;
51475;SDS011;37554;50.362;7.568;2023-08-21T04:06:55;7.78;;;5.00;;
51475;SDS011;37554;50.362;7.568;2023-08-21T04:09:21;8.82;;;4.70;;
51475;SDS011;37554;50.362;7.568;2023-08-21T04:11:46;5.38;;;4.50;;
51475;SDS011;37554;50.362;7.568;2023-08-21T04:14:12;4.75;;;4.32;;
51475;SDS011;37554;50.362;7.568;2023-08-21T04:16:38;6.75;;;4.78;;
51475;SDS011;37554;50.362;7.568;2023-08-21T04:19:04;5.97;;;4.90;;
51475;SDS011;37554;50.362;7.568;2023-08-21T04:21:30;5.57;;;4.53;;
51475;SDS011;37554;50.362;7.568;2023-08-21T04:23:56;4.90;;;4.50;;
51475;SDS011;37554;50.362;7.568;2023-08-21T04:26:21;5.55;;;4.90;;
51475;SDS011;37554;50.362;7.568;2023-08-21T04:28:47;5.00;;;4.50;;
51475;SDS011;37554;50.362;7.568;2023-08-21T04:31:13;5.57;;;4.35;;
51475;SDS011;37554;50.362;7.568;2023-08-21T04:33:38;6.75;;;4.72;;
51475;SDS011;37554;50.362;7.568;2023-08-21T04:36:04;6.45;;;4.80;;
51475;SDS011;37554;50.362;7.568;2023-08-21T04:38:30;5.93;;;4.65;;
51475;SDS011;37554;50.362;7.568;2023-08-21T04:40:56;4.97;;;4.53;;
51475;SDS011;37554;50.362;7.568;2023-08-21T04:43:21;4.97;;;4.57;;
51475;SDS011;37554;50.362;7.568;2023-08-21T04:45:50;5.30;;;4.80;;
51475;SDS011;37554;50.362;7.568;2023-08-21T04:48:19;4.72;;;4.40;;
51475;SDS011;37554;50.362;7.568;2023-08-21T04:50:45;5.18;;;4.15;;
51475;SDS011;37554;50.362;7.568;2023-08-21T04:53:11;5.05;;;4.65;;
51475;SDS011;37554;50.362;7.568;2023-08-21T04:55:37;6.57;;;4.82;;
51475;SDS011;37554;50.362;7.568;2023-08-21T04:58:05;6.13;;;4.90;;
51475;SDS011;37554;50.362;7.568;2023-08-21T05:00:31;5.75;;;5.25;;
51475;SDS011;37554;50.362;7.568;2023-08-21T05:02:57;8.60;;;5.20;;
51475;SDS011;37554;50.362;7.568;2023-08-21T05:05:23;5.53;;;5.10;;
51475;SDS011;37554;50.362;7.568;2023-08-21T05:07:49;6.07;;;5.15;;
51475;SDS011;37554;50.362;7.568;2023-08-21T05:10:14;6.85;;;5.55;;
51475;SDS011;37554;50.362;7.568;2023-08-21T05:12:40;8.63;;;5.75;;
51475;SDS011;37554;50.362;7.568;2023-08-21T05:15:06;7.72;;;6.00;;
51475;SDS011;37554;50.362;7.568;2023-08-21T05:17:32;9.00;;;5.70;;
51475;SDS011;37554;50.362;7.568;2023-08-21T05:19:58;8.63;;;5.78;;
51475;SDS011;37554;50.362;7.568;2023-08-21T05:22:24;5.75;;;5.18;;
51475;SDS011;37554;50.362;7.568;2023-08-21T05:24:49;5.82;;;5.43;;
51475;SDS011;37554;50.362;7.568;2023-08-21T05:27:15;9.20;;;5.85;;
51475;SDS011;37554;50.362;7.568;2023-08-21T05:29:40;10.27;;;5.72;;
51475;SDS011;37554;50.362;7.568;2023-08-21T05:32:06;6.88;;;5.55;;
51475;SDS011;37554;50.362;7.568;2023-08-21T05:34:32;6.78;;;5.80;;
51475;SDS011;37554;50.362;7.568;2023-08-21T05:36:57;5.93;;;5.43;;
51475;SDS011;37554;50.362;7.568;2023-08-21T05:39:23;7.53;;;5.57;;
51475;SDS011;37554;50.362;7.568;2023-08-21T05:41:49;5.80;;;5.25;;
51475;SDS011;37554;50.362;7.568;2023-08-21T05:44:14;8.27;;;6.25;;
51475;SDS011;37554;50.362;7.568;2023-08-21T05:46:40;6.93;;;6.05;;
51475;SDS011;37554;50.362;7.568;2023-08-21T05:49:06;9.35;;;6.22;;
51475;SDS011;37554;50.362;7.568;2023-08-21T05:51:32;7.53;;;6.45;;
51475;SDS011;37554;50.362;7.568;2023-08-21T05:53:58;6.28;;;5.75;;
51475;SDS011;37554;50.362;7.568;2023-08-21T05:56:24;6.63;;;6.05;;
51475;SDS011;37554;50.362;7.568;2023-08-21T05:58:50;6.85;;;6.15;;
51475;SDS011;37554;50.362;7.568;2023-08-21T06:01:15;10.60;;;6.63;;
51475;SDS011;37554;50.362;7.568;2023-08-21T06:03:41;8.80;;;5.70;;
51475;SDS011;37554;50.362;7.568;2023-08-21T06:06:08;12.05;;;6.50;;
51475;SDS011;37554;50.362;7.568;2023-08-21T06:08:33;9.57;;;6.57;;
51475;SDS011;37554;50.362;7.568;2023-08-21T06:10:59;9.88;;;6.03;;
51475;SDS011;37554;50.362;7.568;2023-08-21T06:13:25;6.65;;;6.10;;
51475;SDS011;37554;50.362;7.568;2023-08-21T06:15:51;6.88;;;6.18;;
51475;SDS011;37554;50.362;7.568;2023-08-21T06:18:21;7.63;;;6.82;;
51475;SDS011;37554;50.362;7.568;2023-08-21T06:20:47;8.20;;;6.57;;
51475;SDS011;37554;50.362;7.568;2023-08-21T06:23:14;7.18;;;5.82;;
51475;SDS011;37554;50.362;7.568;2023-08-21T06:25:39;6.40;;;5.80;;
51475;SDS011;37554;50.362;7.568;2023-08-21T06:28:09;7.93;;;5.93;;
51475;SDS011;37554;50.362;7.568;2023-08-21T06:30:35;7.47;;;5.82;;
51475;SDS011;37554;50.362;7.568;2023-08-21T06:33:00;7.18;;;6.47;;
51475;SDS011;37554;50.362;7.568;2023-08-21T06:35:26;10.77;;;6.35;;
51475;SDS011;37554;50.362;7.568;2023-08-21T06:37:51;7.90;;;6.43;;
51475;SDS011;37554;50.362;7.568;2023-08-21T06:40:19;7.40;;;6.72;;
51475;SDS011;37554;50.362;7.568;2023-08-21T06:42:45;10.00;;;6.03;;
51475;SDS011;37554;50.362;7.568;2023-08-21T06:45:10;7.20;;;6.45;;
51475;SDS011;37554;50.362;7.568;2023-08-21T06:47:36;10.23;;;6.07;;
51475;SDS011;37554;50.362;7.568;2023-08-21T06:50:02;6.95;;;6.05;;
51475;SDS011;37554;50.362;7.568;2023-08-21T06:52:27;6.72;;;5.78;;
51475;SDS011;37554;50.362;7.568;2023-08-21T06:54:53;18.10;;;6.90;;
51475;SDS011;37554;50.362;7.568;2023-08-21T06:57:19;7.53;;;6.28;;
51475;SDS011;37554;50.362;7.568;2023-08-21T06:59:44;9.93;;;6.25;;
51475;SDS011;37554;50.362;7.568;2023-08-21T07:02:10;7.57;;;6.75;;
51475;SDS011;37554;50.362;7.568;2023-08-21T07:04:35;8.48;;;6.03;;
51475;SDS011;37554;50.362;7.568;2023-08-21T07:07:01;6.88;;;6.28;;
51475;SDS011;37554;50.362;7.568;2023-08-21T07:09:27;6.82;;;6.00;;
51475;SDS011;37554;50.362;7.568;2023-08-21T07:11:53;8.43;;;6.25;;
51475;SDS011;37554;50.362;7.568;2023-08-21T07:14:19;6.28;;;5.80;;
51475;SDS011;37554;50.362;7.568;2023-08-21T07:16:44;6.97;;;6.28;;
51475;SDS011;37554;50.362;7.568;2023-08-21T07:19:10;6.45;;;5.93;;
51475;SDS011;37554;50.362;7.568;2023-08-21T07:21:36;7.30;;;5.88;;
51475;SDS011;37554;50.362;7.568;2023-08-21T07:24:03;6.45;;;5.85;;
51475;SDS011;37554;50.362;7.568;2023-08-21T07:26:29;7.72;;;5.80;;
51475;SDS011;37554;50.362;7.568;2023-08-21T07:28:55;8.07;;;6.05;;
51475;SDS011;37554;50.362;7.568;2023-08-21T07:31:21;6.30;;;5.35;;
51475;SDS011;37554;50.362;7.568;2023-08-21T07:33:47;8.52;;;5.72;;
51475;SDS011;37554;50.362;7.568;2023-08-21T07:36:13;6.05;;;5.18;;
51475;SDS011;37554;50.362;7.568;2023-08-21T07:38:42;5.65;;;5.13;;
51475;SDS011;37554;50.362;7.568;2023-08-21T07:41:09;7.78;;;5.32;;
51475;SDS011;37554;50.362;7.568;2023-08-21T07:43:36;6.90;;;5.32;;
51475;SDS011;37554;50.362;7.568;2023-08-21T07:46:06;8.52;;;5.15;;
51475;SDS011;37554;50.362;7.568;2023-08-21T07:48:34;6.57;;;5.32;;
51475;SDS011;37554;50.362;7.568;2023-08-21T07:51:01;6.07;;;5.38;;
51475;SDS011;37554;50.362;7.568;2023-08-21T07:53:27;6.15;;;5.25;;
51475;SDS011;37554;50.362;7.568;2023-08-21T07:55:53;9.18;;;5.20;;
51475;SDS011;37554;50.362;7.568;2023-08-21T07:58:19;5.40;;;4.68;;
51475;SDS011;37554;50.362;7.568;2023-08-21T08:00:45;5.90;;;4.72;;
51475;SDS011;37554;50.362;7.568;2023-08-21T08:03:10;6.10;;;5.50;;
51475;SDS011;37554;50.362;7.568;2023-08-21T08:05:37;6.88;;;4.70;;
51475;SDS011;37554;50.362;7.568;2023-08-21T08:08:03;5.35;;;4.70;;
51475;SDS011;37554;50.362;7.568;2023-08-21T08:10:29;7.38;;;4.82;;
51475;SDS011;37554;50.362;7.568;2023-08-21T08:12:55;5.60;;;4.60;;
51475;SDS011;37554;50.362;7.568;2023-08-21T08:15:21;4.97;;;4.57;;
51475;SDS011;37554;50.362;7.568;2023-08-21T08:17:47;5.63;;;4.82;;
51475;SDS011;37554;50.362;7.568;2023-08-21T08:20:17;6.22;;;4.57;;
51475;SDS011;37554;50.362;7.568;2023-08-21T08:22:43;6.30;;;4.15;;
51475;SDS011;37554;50.362;7.568;2023-08-21T08:25:08;8.15;;;4.60;;
51475;SDS011;37554;50.362;7.568;2023-08-21T08:27:35;5.07;;;4.68;;
51475;SDS011;37554;50.362;7.568;2023-08-21T08:30:01;6.07;;;4.65;;
51475;SDS011;37554;50.362;7.568;2023-08-21T08:32:28;4.30;;;3.97;;
51475;SDS011;37554;50.362;7.568;2023-08-21T08:34:53;4.85;;;4.30;;
51475;SDS011;37554;50.362;7.568;2023-08-21T08:37:19;7.22;;;5.03;;
51475;SDS011;37554;50.362;7.568;2023-08-21T08:39:48;6.63;;;4.43;;
51475;SDS011;37554;50.362;7.568;2023-08-21T08:42:14;6.72;;;5.03;;
51475;SDS011;37554;50.362;7.568;2023-08-21T08:44:42;6.25;;;4.65;;
51475;SDS011;37554;50.362;7.568;2023-08-21T08:47:11;5.18;;;4.75;;
51475;SDS011;37554;50.362;7.568;2023-08-21T08:49:39;5.57;;;4.40;;
51475;SDS011;37554;50.362;7.568;2023-08-21T08:52:05;6.90;;;4.57;;
51475;SDS011;37554;50.362;7.568;2023-08-21T08:54:31;7.45;;;5.15;;
51475;SDS011;37554;50.362;7.568;2023-08-21T08:56:57;6.18;;;4.78;;
51475;SDS011;37554;50.362;7.568;2023-08-21T08:59:23;8.13;;;4.63;;
51475;SDS011;37554;50.362;7.568;2023-08-21T09:01:49;8.68;;;4.80;;
51475;SDS011;37554;50.362;7.568;2023-08-21T09:04:15;5.32;;;4.60;;
51475;SDS011;37554;50.362;7.568;2023-08-21T09:06:41;7.47;;;4.78;;
51475;SDS011;37554;50.362;7.568;2023-08-21T09:09:07;5.88;;;4.80;;
51475;SDS011;37554;50.362;7.568;2023-08-21T09:11:35;4.38;;;4.05;;
51475;SDS011;37554;50.362;7.568;2023-08-21T09:14:07;5.70;;;4.55;;
51475;SDS011;37554;50.362;7.568;2023-08-21T09:16:32;4.68;;;4.25;;
51475;SDS011;37554;50.362;7.568;2023-08-21T09:18:58;4.78;;;4.35;;
51475;SDS011;37554;50.362;7.568;2023-08-21T09:21:24;5.38;;;4.45;;
51475;SDS011;37554;50.362;7.568;2023-08-21T09:23:59;7.90;;;4.90;;
51475;SDS011;37554;50.362;7.568;2023-08-21T09:26:25;4.25;;;3.92;;
51475;SDS011;37554;50.362;7.568;2023-08-21T09:28:52;5.38;;;4.65;;
51475;SDS011;37554;50.362;7.568;2023-08-21T09:31:23;6.68;;;4.47;;
51475;SDS011;37554;50.362;7.568;2023-08-21T09:33:55;5.65;;;4.13;;
51475;SDS011;37554;50.362;7.568;2023-08-21T09:36:22;6.43;;;3.97;;
51475;SDS011;37554;50.362;7.568;2023-08-21T09:38:47;5.18;;;4.22;;
51475;SDS011;37554;50.362;7.568;2023-08-21T09:41:13;4.22;;;3.85;;
51475;SDS011;37554;50.362;7.568;2023-08-21T09:43:42;4.78;;;4.28;;
51475;SDS011;37554;50.362;7.568;2023-08-21T09:46:08;4.68;;;4.10;;
51475;SDS011;37554;50.362;7.568;2023-08-21T09:48:33;4.35;;;3.92;;
51475;SDS011;37554;50.362;7.568;2023-08-21T09:51:00;5.35;;;4.30;;
51475;SDS011;37554;50.362;7.568;2023-08-21T09:53:29;4.93;;;4.30;;
51475;SDS011;37554;50.362;7.568;2023-08-21T09:55:55;6.22;;;4.05;;
51475;SDS011;37554;50.362;7.568;2023-08-21T09:58:21;4.30;;;4.00;;
51475;SDS011;37554;50.362;7.568;2023-08-21T10:00:48;6.22;;;4.28;;
51475;SDS011;37554;50.362;7.568;2023-08-21T10:03:17;7.07;;;4.28;;
51475;SDS011;37554;50.362;7.568;2023-08-21T10:05:45;4.60;;;4.07;;
51475;SDS011;37554;50.362;7.568;2023-08-21T10:08:13;5.63;;;3.97;;
51475;SDS011;37554;50.362;7.568;2023-08-21T10:10:40;5.63;;;4.07;;
51475;SDS011;37554;50.362;7.568;2023-08-21T10:13:07;6.32;;;4.80;;
51475;SDS011;37554;50.362;7.568;2023-08-21T10:15:33;6.38;;;4.10;;
51475;SDS011;37554;50.362;7.568;2023-08-21T10:18:20;4.47;;;3.95;;
51475;SDS011;37554;50.362;7.568;2023-08-21T10:20:48;6.00;;;3.88;;
51475;SDS011;37554;50.362;7.568;2023-08-21T10:23:28;4.38;;;3.97;;
51475;SDS011;37554;50.362;7.568;2023-08-21T10:25:58;7.30;;;3.97;;
51475;SDS011;37554;50.362;7.568;2023-08-21T10:28:25;6.25;;;4.03;;
51475;SDS011;37554;50.362;7.568;2023-08-21T10:31:25;5.23;;;3.90;;
51475;SDS011;37554;50.362;7.568;2023-08-21T10:33:57;6.70;;;3.75;;
51475;SDS011;37554;50.362;7.568;2023-08-21T10:39:02;7.05;;;3.55;;
51475;SDS011;37554;50.362;7.568;2023-08-21T10:41:29;3.50;;;3.20;;
51475;SDS011;37554;50.362;7.568;2023-08-21T10:43:55;4.05;;;3.42;;
51475;SDS011;37554;50.362;7.568;2023-08-21T10:46:21;4.15;;;3.75;;
51475;SDS011;37554;50.362;7.568;2023-08-21T10:48:46;8.68;;;3.92;;
51475;SDS011;37554;50.362;7.568;2023-08-21T10:51:12;4.82;;;3.72;;
51475;SDS011;37554;50.362;7.568;2023-08-21T10:53:38;5.00;;;3.60;;
51475;SDS011;37554;50.362;7.568;2023-08-21T10:56:06;3.97;;;3.58;;
51475;SDS011;37554;50.362;7.568;2023-08-21T10:58:38;8.35;;;4.10;;
51475;SDS011;37554;50.362;7.568;2023-08-21T11:01:06;6.22;;;3.80;;
51475;SDS011;37554;50.362;7.568;2023-08-21T11:03:31;6.03;;;3.30;;
51475;SDS011;37554;50.362;7.568;2023-08-21T11:06:07;6.10;;;3.20;;
51475;SDS011;37554;50.362;7.568;2023-08-21T11:08:36;6.38;;;3.53;;
51475;SDS011;37554;50.362;7.568;2023-08-21T11:11:02;5.10;;;3.63;;
51475;SDS011;37554;50.362;7.568;2023-08-21T11:13:29;4.80;;;3.40;;
51475;SDS011;37554;50.362;7.568;2023-08-21T11:16:02;4.82;;;2.92;;
51475;SDS011;37554;50.362;7.568;2023-08-21T11:18:35;4.63;;;3.33;;
51475;SDS011;37554;50.362;7.568;2023-08-21T11:21:09;4.00;;;3.03;;
51475;SDS011;37554;50.362;7.568;2023-08-21T11:23:37;4.85;;;3.15;;
51475;SDS011;37554;50.362;7.568;2023-08-21T11:26:09;3.70;;;3.28;;
51475;SDS011;37554;50.362;7.568;2023-08-21T11:28:35;3.35;;;2.70;;
51475;SDS011;37554;50.362;7.568;2023-08-21T11:31:01;4.80;;;2.78;;
51475;SDS011;37554;50.362;7.568;2023-08-21T11:33:28;4.15;;;2.70;;
51475;SDS011;37554;50.362;7.568;2023-08-21T11:35:54;6.32;;;2.72;;
51475;SDS011;37554;50.362;7.568;2023-08-21T11:38:22;6.22;;;2.72;;
51475;SDS011;37554;50.362;7.568;2023-08-21T11:40:57;5.32;;;2.70;;
51475;SDS011;37554;50.362;7.568;2023-08-21T11:43:37;3.30;;;2.97;;
51475;SDS011;37554;50.362;7.568;2023-08-21T11:46:08;2.65;;;2.45;;
51475;SDS011;37554;50.362;7.568;2023-08-21T11:48:38;4.40;;;2.50;;
51475;SDS011;37554;50.362;7.568;2023-08-21T11:51:05;2.97;;;2.30;;
51475;SDS011;37554;50.362;7.568;2023-08-21T11:53:33;3.35;;;1.92;;
51475;SDS011;37554;50.362;7.568;2023-08-21T11:56:10;2.17;;;1.95;;
51475;SDS011;37554;50.362;7.568;2023-08-21T11:58:40;2.17;;;1.80;;
51475;SDS011;37554;50.362;7.568;2023-08-21T12:01:15;3.85;;;2.28;;
51475;SDS011;37554;50.362;7.568;2023-08-21T12:03:45;5.13;;;2.20;;
51475;SDS011;37554;50.362;7.568;2023-08-21T12:06:11;2.75;;;2.03;;
51475;SDS011;37554;50.362;7.568;2023-08-21T12:08:38;4.70;;;1.95;;
51475;SDS011;37554;50.362;7.568;2023-08-21T12:11:04;4.13;;;2.03;;
51475;SDS011;37554;50.362;7.568;2023-08-21T12:13:31;2.83;;;2.00;;
51475;SDS011;37554;50.362;7.568;2023-08-21T12:15:56;3.15;;;1.70;;
51475;SDS011;37554;50.362;7.568;2023-08-21T12:18:22;4.50;;;1.92;;
51475;SDS011;37554;50.362;7.568;2023-08-21T12:20:48;2.40;;;2.20;;
51475;SDS011;37554;50.362;7.568;2023-08-21T12:23:14;3.20;;;2.00;;
51475;SDS011;37554;50.362;7.568;2023-08-21T12:25:40;3.28;;;1.77;;
51475;SDS011;37554;50.362;7.568;2023-08-21T12:28:07;3.72;;;2.03;;
51475;SDS011;37554;50.362;7.568;2023-08-21T12:30:33;2.88;;;2.00;;
51475;SDS011;37554;50.362;7.568;2023-08-21T12:32:59;2.00;;;1.80;;
51475;SDS011;37554;50.362;7.568;2023-08-21T12:35:25;2.30;;;2.03;;
51475;SDS011;37554;50.362;7.568;2023-08-21T12:37:51;2.58;;;2.00;;
51475;SDS011;37554;50.362;7.568;2023-08-21T12:40:21;2.30;;;2.10;;
51475;SDS011;37554;50.362;7.568;2023-08-21T12:42:46;2.25;;;2.03;;
51475;SDS011;37554;50.362;7.568;2023-08-21T12:45:12;2.40;;;2.10;;
51475;SDS011;37554;50.362;7.568;2023-08-21T12:47:38;2.90;;;2.05;;
51475;SDS011;37554;50.362;7.568;2023-08-21T12:50:04;3.35;;;2.20;;
51475;SDS011;37554;50.362;7.568;2023-08-21T12:52:30;3.35;;;2.22;;
51475;SDS011;37554;50.362;7.568;2023-08-21T12:54:56;3.72;;;2.28;;
51475;SDS011;37554;50.362;7.568;2023-08-21T12:57:22;2.72;;;2.00;;
51475;SDS011;37554;50.362;7.568;2023-08-21T12:59:47;4.10;;;2.08;;
51475;SDS011;37554;50.362;7.568;2023-08-21T13:02:13;4.65;;;2.15;;
51475;SDS011;37554;50.362;7.568;2023-08-21T13:04:39;2.17;;;2.00;;
51475;SDS011;37554;50.362;7.568;2023-08-21T13:07:04;2.85;;;2.00;;
51475;SDS011;37554;50.362;7.568;2023-08-21T13:09:30;2.13;;;1.95;;
51475;SDS011;37554;50.362;7.568;2023-08-21T13:11:56;3.38;;;1.98;;
51475;SDS011;37554;50.362;7.568;2023-08-21T13:14:21;2.15;;;1.95;;
51475;SDS011;37554;50.362;7.568;2023-08-21T13:16:47;3.30;;;1.85;;
51475;SDS011;37554;50.362;7.568;2023-08-21T13:19:13;2.30;;;2.10;;
51475;SDS011;37554;50.362;7.568;2023-08-21T13:21:38;1.92;;;1.83;;
51475;SDS011;37554;50.362;7.568;2023-08-21T13:24:04;2.20;;;1.98;;
51475;SDS011;37554;50.362;7.568;2023-08-21T13:26:30;2.25;;;1.70;;
51475;SDS011;37554;50.362;7.568;2023-08-21T13:29:00;2.47;;;2.17;;
51475;SDS011;37554;50.362;7.568;2023-08-21T13:31:26;2.22;;;2.00;;
51475;SDS011;37554;50.362;7.568;2023-08-21T13:33:53;3.53;;;1.98;;
51475;SDS011;37554;50.362;7.568;2023-08-21T13:36:20;3.38;;;1.80;;
51475;SDS011;37554;50.362;7.568;2023-08-21T13:38:46;2.92;;;2.15;;
51475;SDS011;37554;50.362;7.568;2023-08-21T13:41:12;2.45;;;2.00;;
51475;SDS011;37554;50.362;7.568;2023-08-21T13:43:38;3.90;;;1.90;;
51475;SDS011;37554;50.362;7.568;2023-08-21T13:46:04;2.13;;;1.92;;
51475;SDS011;37554;50.362;7.568;2023-08-21T13:48:32;4.20;;;2.20;;
51475;SDS011;37554;50.362;7.568;2023-08-21T13:50:58;3.85;;;2.25;;
51475;SDS011;37554;50.362;7.568;2023-08-21T13:53:24;2.03;;;1.90;;
51475;SDS011;37554;50.362;7.568;2023-08-21T13:55:49;3.25;;;2.30;;
51475;SDS011;37554;50.362;7.568;2023-08-21T13:58:16;2.72;;;2.13;;
51475;SDS011;37554;50.362;7.568;2023-08-21T14:00:41;2.50;;;2.30;;
51475;SDS011;37554;50.362;7.568;2023-08-21T14:03:07;3.13;;;2.40;;
51475;SDS011;37554;50.362;7.568;2023-08-21T14:05:32;4.30;;;2.60;;
51475;SDS011;37554;50.362;7.568;2023-08-21T14:07:59;4.90;;;2.55;;
51475;SDS011;37554;50.362;7.568;2023-08-21T14:10:25;2.72;;;2.45;;
51475;SDS011;37554;50.362;7.568;2023-08-21T14:12:51;2.88;;;2.63;;
51475;SDS011;37554;50.362;7.568;2023-08-21T14:15:17;4.43;;;2.58;;
51475;SDS011;37554;50.362;7.568;2023-08-21T14:17:43;2.78;;;2.55;;
51475;SDS011;37554;50.362;7.568;2023-08-21T14:20:09;5.45;;;2.63;;
51475;SDS011;37554;50.362;7.568;2023-08-21T14:22:38;4.32;;;2.95;;
51475;SDS011;37554;50.362;7.568;2023-08-21T14:25:04;4.30;;;2.50;;
51475;SDS011;37554;50.362;7.568;2023-08-21T14:27:32;4.47;;;2.70;;
51475;SDS011;37554;50.362;7.568;2023-08-21T14:29:59;2.50;;;2.30;;
51475;SDS011;37554;50.362;7.568;2023-08-21T14:32:25;2.92;;;2.40;;
51475;SDS011;37554;50.362;7.568;2023-08-21T14:34:51;4.13;;;2.30;;
51475;SDS011;37554;50.362;7.568;2023-08-21T14:37:20;4.28;;;2.35;;
51475;SDS011;37554;50.362;7.568;2023-08-21T14:39:46;4.43;;;2.88;;
51475;SDS011;37554;50.362;7.568;2023-08-21T14:42:12;3.97;;;2.63;;
51475;SDS011;37554;50.362;7.568;2023-08-21T14:44:38;5.47;;;2.55;;
51475;SDS011;37554;50.362;7.568;2023-08-21T14:47:04;3.67;;;2.30;;
51475;SDS011;37554;50.362;7.568;2023-08-21T14:49:30;4.32;;;2.60;;
51475;SDS011;37554;50.362;7.568;2023-08-21T14:51:56;4.50;;;2.47;;